GMMHGCLP

Guest
Details From GMMH - DAKHLA
To GCLP - Gran Canaria
Flight Number -
Tags generated
Created
Modified
Stats Distance 272 nm / 504 km
Max Altitude 27,600 ft / 8,412 m
Waypoints 4
Social Downloads 2
Likes 0
Share VATSIM

Download

Looking for another format? Having issues loading an existing format? Contact us
Advertisement - Login to hide

Notes

Basic altitude profile: - Ascent Rate: 2500ft/min - Ascent Speed: 250kts - Cruise Altitude: 35000ft - Cruise Speed: 420kts - Descent Rate: 1500ft/min - Descent Speed: 250kts Options: - Use NATs: yes - Use PACOTS: yes - Use low airways: yes - Use high airways: yes

Route

GMMH ROYAL B600 GDV GCLP

ID Type Via Altitude (ft/m) Position (lat/lon) Dist (leg/tot) Name
O GMMH APT - 0 / 0 23.71829 / -15.93199 - / 0 nm DAKHLA
ROYAL FIX - 27,600 / 8,412 25.00000 / -15.78674 77 / 77 nm
GDV VOR B600 (AWY-LO) 8,500 / 2,591 28.07708 / -15.42899 185 / 263 nm GRAN CANARIA VOR-DME
O GCLP APT - 0 / 0 27.93154 / -15.38559 9 / 272 nm Gran Canaria

Altitude Profile

Advertisement - Login to hide

Weather


0- 5 10 15 20 25 30 35+ Temperature / °C

Clouds and Precipitation
Forecast for 2019-03-20 06:00 UTC. Updated 5 hours ago

Ground ~20,000 ft ~40,000 ft Winds

GMMH

Details ICAO GMMH (VIL)
Name Dakhla International
Region Morocco
Timezone Africa/El_Aaiun (UTC+0.0)
Stats Elevation 36 ft / 11 m (AMSL)
Location 23.718300° -15.931900°
Runways 1
Magnetic Variation 5.125° W

METAR

GMMH 200800Z 06018KT 6000 NSC 16/13 Q1014 NOSIG

Decode

TAF

TAF GMMH 200500Z 2006/2112 05013KT 6000 NSC

Decode

Departure Runways

ID Width Length Bearing (true/mag) Surface Threshold Overrun Markings Lighting
03 142 ft / 43 m 9,834 ft / 2,997 m 22.69° / 27.82° ASPHALT 0 ft / 0 m 0 ft / 0 m PREC-APP EDGE THRESHOLD
21 142 ft / 43 m 9,834 ft / 2,997 m 202.69° / 207.82° ASPHALT 0 ft / 0 m 0 ft / 0 m PREC-APP EDGE THRESHOLD

GCLP

Details ICAO GCLP (LPA)
Name Gran Canaria - Las Palmas
Region Canary Islands
Timezone Atlantic/Canary (UTC+0.0)
Stats Elevation 78 ft / 24 m (AMSL)
Location 27.931600° -15.385600°
Runways 2
Magnetic Variation 4.539° W

METAR

GCLP 200830Z 35016KT 9999 FEW025 17/11 Q1017 NOSIG

Decode

TAF

TAF GCLP 200800Z 2009/2109 01022KT 9999 FEW025 TX22/2014Z TN17/2106Z= TAF KDYS 200800Z 2008/2114 15009KT 9999 FEW030 QNH3015INS BECMG 2011/2012 02006KT 9999 SCT010 OVC020 QNH3014INS BECMG 2015/2016 02012G18KT 9999 FEW010 BKN025 QNH3024INS BECMG 2017/2018 02010KT 9999 FEW030 QNH3022INS BECMG 2101/2102 VRB06KT 9999 SKC QNH3024INS TX17/2022Z TN06/2011Z

Decode

Destination Runways

ID Width Length Bearing (true/mag) Surface Threshold Overrun Markings Lighting
03L 148 ft / 45 m 10,181 ft / 3,103 m 21.33° / 25.87° ASPHALT 0 ft / 0 m 656 ft / 200 m PREC-APP CENTERLINE EDGE THRESHOLD CALVERT REIL-OMNI
03R 148 ft / 45 m 10,181 ft / 3,103 m 21.33° / 25.87° ASPHALT 0 ft / 0 m 656 ft / 200 m PREC-APP CENTERLINE EDGE THRESHOLD CALVERT REIL-OMNI
21L 148 ft / 45 m 10,181 ft / 3,103 m 201.34° / 205.88° ASPHALT 0 ft / 0 m 666 ft / 203 m PREC-APP CENTERLINE EDGE THRESHOLD MALS REIL-OMNI
21R 148 ft / 45 m 10,181 ft / 3,103 m 201.34° / 205.88° ASPHALT 0 ft / 0 m 755 ft / 230 m PREC-APP CENTERLINE EDGE THRESHOLD MALS REIL-OMNI

Approach Navaids

Runway Type Ident Frequency Range Bearing (true/mag) Slope Elevation
03L LOC-ILS ILP 109.90 MHz 18 nm / 33 km 21.33° / 25.87 ° - 77 ft / 23 m (AMSL)
03L GS ILP 109.90 MHz 10 nm / 19 km 21.66° / 26.20 ° 3.00° 102 ft / 31 m (AMSL)
03L DME ILP 109.90 MHz 18 nm / 33 km - - 102 ft / 31 m (AMSL)
21R DME RLP 110.70 MHz 18 nm / 33 km - - 57 ft / 17 m (AMSL)
21R LOC-ILS RLP 110.70 MHz 18 nm / 33 km 201.32° / 205.86 ° - 77 ft / 23 m (AMSL)
21R GS RLP 110.70 MHz 10 nm / 19 km 201.66° / 206.20 ° 3.00° 77 ft / 23 m (AMSL)

Popular Alternatives